Centerville, TX

12:24 AM CST on December 10, 2016 (GMT -0600)
NT5CC Amateur Radio Station | | Change Station

Elev 328 ft 31.26 °N, 95.94 °W | Updated 8 minutes ago

Mostly Cloudy
Mostly Cloudy
29.9 °F
Feels Like 30 °F
N
0.0
Wind Variable Wind from NNW
Gusts 0.0 mph

Today
High -- | Low -- °F
--% Chance of Precip.
Yesterday
High -- | Low -- °F
Precip. -- in
Pressure 30.56 in
Visibility 10.0 miles
Clouds Clear
Windchill 30 °F
Dew Point 29 °F
Humidity 95%
Rainfall 0.00 in
Snow Depth Not available.
7:12 AM 5:21 PM
Waxing Gibbous, 81% visible
METAR KDKR 100610Z AUTO 00000KT 10SM CLR 00/M04 A3056 RMK AO2
Pressure 30.56 in
Visibility 10.0 miles
Clouds Clear
Windchill 30 °F
Dew Point 29 °F
Humidity 95%
Rainfall 0.00 in
Snow Depth Not available.
7:12 AM 5:21 PM
Waxing Gibbous, 81% visible
METAR KDKR 100610Z AUTO 00000KT 10SM CLR 00/M04 A3056 RMK AO2

10-Day Weather Forecast

Almanac

Astronomy

Dec. 10, 2016 Rise Set
Actual Time
Civil Twilight
Nautical Twilight
Astronomical Twilight
Moon
Length of Visible Light
Length of Day
Tomorrow will be .
, % of the Moon is Illuminated

Today's Extremes

State Highs State Lows

Community

WunderPhotos

Upload Photos

1,956,527 photos uploaded!

WunderBlog® & News

Nearby

Air Quality

  Air Quality AQ Index Pollutant
Not available.

Snow Depth

Station Depth Elevation

Earthquake Activity

City Distance Mag. Time & Date
Minimum magnitude displayed is 2.5.

Coastal Water Temperatures

Place Temperature

Stations

Nearby Weather Stations

Station Location Temp. Windchill Dew Point Humidity Wind Precip. Elev Updated Type
                   

Watches & Warnings

There are currently no watches in effect.